createdAt,value
2019-05-20T00:01:53.099Z,31.12
2019-05-20T00:04:19.364Z,31.23
2019-05-20T00:06:45.669Z,28.77
2019-05-20T00:09:12.047Z,30.20
2019-05-20T00:11:38.319Z,28.62
2019-05-20T00:14:04.756Z,27.22
2019-05-20T00:16:32.165Z,28.70
2019-05-20T00:18:58.459Z,29.67
2019-05-20T00:21:24.737Z,28.55
2019-05-20T00:23:50.989Z,25.50
2019-05-20T00:26:17.266Z,26.20
2019-05-20T00:28:43.511Z,28.87
2019-05-20T00:31:09.742Z,29.32
2019-05-20T00:33:36.012Z,27.40
2019-05-20T00:36:02.362Z,28.62
2019-05-20T00:38:28.665Z,23.50
2019-05-20T00:40:54.951Z,24.07
2019-05-20T00:43:21.313Z,24.43
2019-05-20T00:45:47.670Z,25.08
2019-05-20T00:48:14.078Z,22.98
2019-05-20T00:50:40.303Z,22.37
2019-05-20T00:53:06.773Z,22.35
2019-05-20T00:55:33.417Z,21.25
2019-05-20T00:57:59.750Z,20.72
2019-05-20T01:00:26.697Z,19.67
2019-05-20T01:02:56.888Z,19.67
2019-05-20T01:05:21.330Z,19.15
2019-05-20T01:07:47.561Z,19.25
2019-05-20T01:10:14.324Z,17.27
2019-05-20T01:12:40.583Z,19.75
2019-05-20T01:15:07.367Z,19.17
2019-05-20T01:17:33.700Z,18.20
2019-05-20T01:20:00.254Z,18.07
2019-05-20T01:22:26.677Z,21.80
2019-05-20T01:24:53.057Z,18.67
2019-05-20T01:27:19.401Z,18.07
2019-05-20T01:29:45.663Z,18.95
2019-05-20T01:32:11.899Z,18.60
2019-05-20T01:34:38.135Z,18.57
2019-05-20T01:37:04.407Z,17.87
2019-05-20T01:39:30.725Z,18.75
2019-05-20T01:41:57.241Z,20.35
2019-05-20T01:44:23.629Z,20.88
2019-05-20T01:46:49.980Z,18.98
2019-05-20T01:49:16.199Z,18.45
2019-05-20T01:51:42.575Z,19.50
2019-05-20T01:54:08.820Z,19.67
2019-05-20T01:56:35.079Z,19.27
2019-05-20T01:59:01.331Z,21.30
2019-05-20T02:01:27.646Z,20.00
2019-05-20T02:03:53.955Z,19.95
2019-05-20T02:06:20.161Z,19.80
2019-05-20T02:08:46.505Z,20.97
2019-05-20T02:11:12.756Z,20.12
2019-05-20T02:13:59.006Z,20.20
2019-05-20T02:16:29.003Z,20.43
2019-05-20T02:18:55.479Z,18.60
2019-05-20T02:21:21.731Z,21.75
2019-05-20T02:23:48.071Z,19.10
2019-05-20T02:26:14.319Z,20.32
2019-05-20T02:28:40.575Z,22.05
2019-05-20T02:31:07.041Z,20.45
2019-05-20T02:33:49.735Z,21.17
2019-05-20T02:36:21.346Z,21.82
2019-05-20T02:38:47.587Z,20.68
2019-05-20T02:41:13.933Z,20.62
2019-05-20T02:43:40.191Z,21.02
2019-05-20T02:46:06.544Z,22.37
2019-05-20T02:48:32.906Z,19.67
2019-05-20T02:50:59.159Z,20.23
2019-05-20T02:53:25.517Z,18.62
2019-05-20T02:55:51.873Z,22.35
2019-05-20T02:58:18.273Z,19.12
2019-05-20T03:00:44.664Z,17.62
2019-05-20T03:03:10.993Z,17.57
2019-05-20T03:05:37.278Z,20.80
2019-05-20T03:08:03.533Z,19.23
2019-05-20T03:10:29.783Z,18.70
2019-05-20T03:12:56.029Z,22.42
2019-05-20T03:15:22.367Z,19.92
2019-05-20T03:17:48.818Z,18.52
2019-05-20T03:20:15.582Z,18.00
2019-05-20T03:22:42.053Z,18.05
2019-05-20T03:25:08.590Z,19.12
2019-05-20T03:27:34.990Z,17.55
2019-05-20T03:30:01.627Z,17.82
2019-05-20T03:32:27.930Z,17.85
2019-05-20T03:34:59.904Z,16.42
2019-05-20T03:37:23.497Z,17.32
2019-05-20T03:39:49.864Z,16.30
2019-05-20T03:42:16.110Z,18.25
2019-05-20T03:44:42.399Z,21.48
2019-05-20T03:47:08.634Z,17.17
2019-05-20T03:49:34.942Z,18.55
2019-05-20T03:52:01.621Z,19.95
2019-05-20T03:54:27.970Z,17.32
2019-05-20T03:56:54.238Z,16.65
2019-05-20T03:59:20.493Z,15.23
2019-05-20T04:01:46.941Z,16.77
2019-05-20T04:04:13.271Z,15.88
2019-05-20T04:06:39.547Z,13.83
2019-05-20T04:09:06.278Z,14.20
2019-05-20T04:11:32.598Z,14.85
2019-05-20T04:13:58.966Z,15.78
2019-05-20T04:16:25.241Z,13.55
2019-05-20T04:18:54.347Z,16.75
2019-05-20T04:21:19.616Z,14.25
2019-05-20T04:23:46.135Z,15.68
2019-05-20T04:26:12.374Z,15.68
2019-05-20T04:28:38.664Z,14.20
2019-05-20T04:31:05.045Z,14.30
2019-05-20T04:33:31.392Z,18.30
2019-05-20T04:35:57.669Z,15.63
2019-05-20T04:38:23.999Z,14.85
2019-05-20T04:40:50.398Z,16.55
2019-05-20T04:43:16.714Z,18.25
2019-05-20T04:45:43.154Z,18.85
2019-05-20T04:48:13.459Z,16.17
2019-05-20T04:50:37.510Z,18.02
2019-05-20T04:53:03.780Z,14.75
2019-05-20T04:55:30.063Z,17.00
2019-05-20T04:57:56.299Z,13.95
2019-05-20T05:00:51.789Z,17.90
2019-05-20T05:03:18.234Z,15.18
2019-05-20T05:05:44.716Z,15.72
2019-05-20T05:08:13.064Z,13.50
2019-05-20T05:10:39.395Z,14.73
2019-05-20T05:13:06.027Z,14.45
2019-05-20T05:15:32.637Z,14.47
2019-05-20T05:17:58.930Z,15.13
2019-05-20T05:20:25.192Z,14.30
2019-05-20T05:22:51.440Z,14.60
2019-05-20T05:25:17.709Z,16.80
2019-05-20T05:27:44.071Z,15.60
2019-05-20T05:30:10.506Z,15.85
2019-05-20T05:32:42.853Z,16.45
2019-05-20T05:35:12.053Z,15.18
2019-05-20T05:37:38.435Z,14.63
2019-05-20T05:40:07.992Z,13.90
2019-05-20T05:42:33.494Z,14.70
2019-05-20T05:44:59.788Z,14.38
2019-05-20T05:47:25.957Z,13.45
2019-05-20T05:49:52.234Z,13.15
2019-05-20T05:52:18.533Z,13.50
2019-05-20T05:54:44.796Z,13.50
2019-05-20T05:57:11.051Z,14.33
2019-05-20T05:59:37.356Z,13.30
2019-05-20T06:02:03.607Z,15.18
2019-05-20T06:04:29.898Z,12.15
2019-05-20T06:06:57.028Z,13.45
2019-05-20T06:09:23.704Z,14.07
2019-05-20T06:11:50.052Z,13.85
2019-05-20T06:14:17.212Z,13.05
2019-05-20T06:16:43.649Z,14.68
2019-05-20T06:19:09.990Z,13.32
2019-05-20T06:21:36.434Z,12.68
2019-05-20T06:24:02.912Z,13.43
2019-05-20T06:26:29.187Z,14.35
2019-05-20T06:28:55.511Z,12.98
2019-05-20T06:31:21.795Z,11.65
2019-05-20T06:33:48.193Z,13.05
2019-05-20T06:36:26.590Z,12.55
2019-05-20T06:38:44.876Z,12.28
2019-05-20T06:41:11.338Z,13.83
2019-05-20T06:43:37.920Z,12.60
2019-05-20T06:46:04.292Z,11.95
2019-05-20T06:48:30.541Z,11.28
2019-05-20T06:50:56.859Z,10.90
2019-05-20T06:53:23.166Z,10.75
2019-05-20T06:55:49.497Z,12.10
2019-05-20T06:58:16.142Z,10.95
2019-05-20T07:00:42.499Z,10.95
2019-05-20T07:03:08.947Z,11.48
2019-05-20T07:05:35.371Z,11.68
2019-05-20T07:08:01.794Z,10.60
2019-05-20T07:10:28.309Z,9.90
2019-05-20T07:12:54.598Z,10.28
2019-05-20T07:15:21.301Z,10.03
2019-05-20T07:17:47.798Z,10.05
2019-05-20T07:20:14.330Z,11.60
2019-05-20T07:22:55.224Z,11.95
2019-05-20T07:25:08.856Z,11.10
2019-05-20T07:27:35.227Z,12.40
2019-05-20T07:30:03.111Z,13.88
2019-05-20T07:32:29.377Z,13.20
2019-05-20T07:34:55.705Z,13.70
2019-05-20T07:37:21.969Z,11.12
2019-05-20T07:39:48.219Z,12.85
2019-05-20T07:42:14.605Z,11.97
2019-05-20T07:44:41.006Z,11.73
2019-05-20T07:47:10.693Z,13.30
2019-05-20T07:49:44.941Z,13.08
2019-05-20T07:52:11.542Z,13.22
2019-05-20T07:54:38.143Z,13.55
2019-05-20T07:57:07.341Z,13.05
2019-05-20T07:59:35.685Z,12.95
2019-05-20T08:02:02.245Z,13.75
2019-05-20T08:04:28.686Z,13.28
2019-05-20T08:06:55.170Z,12.50
2019-05-20T08:09:21.571Z,14.00
2019-05-20T08:11:48.030Z,11.80
2019-05-20T08:14:14.507Z,12.98
2019-05-20T08:16:41.149Z,13.38
2019-05-20T08:19:07.776Z,11.63
2019-05-20T08:21:34.368Z,12.90
2019-05-20T08:24:01.037Z,13.03
2019-05-20T08:26:27.491Z,10.75
2019-05-20T08:28:53.880Z,12.00
2019-05-20T08:31:20.346Z,11.73
2019-05-20T08:33:46.718Z,10.85
2019-05-20T08:36:13.189Z,11.55
2019-05-20T08:38:40.077Z,12.80
2019-05-20T08:41:06.467Z,11.00
2019-05-20T08:43:32.837Z,11.33
2019-05-20T08:45:59.195Z,11.60
2019-05-20T08:48:25.543Z,12.03
2019-05-20T08:50:51.809Z,11.68
2019-05-20T08:53:20.815Z,12.20
2019-05-20T08:55:47.450Z,12.20
2019-05-20T08:58:13.803Z,12.50
2019-05-20T09:00:40.037Z,12.15
2019-05-20T09:03:06.367Z,12.78
2019-05-20T09:05:32.823Z,11.83
2019-05-20T09:08:03.548Z,12.37
2019-05-20T09:10:27.660Z,11.90
2019-05-20T09:12:54.233Z,11.48
2019-05-20T09:15:20.637Z,12.63
2019-05-20T09:17:48.908Z,12.07
2019-05-20T09:20:15.696Z,12.43
2019-05-20T09:22:51.045Z,12.37
2019-05-20T09:25:21.134Z,11.70
2019-05-20T09:27:47.474Z,11.83
2019-05-20T09:30:14.339Z,10.55
2019-05-20T09:32:42.931Z,12.68
2019-05-20T09:35:09.743Z,10.82
2019-05-20T09:37:36.247Z,10.98
2019-05-20T09:40:04.219Z,11.75
2019-05-20T09:42:30.608Z,10.98
2019-05-20T09:44:56.963Z,11.25
2019-05-20T09:47:23.335Z,11.80
2019-05-20T09:49:49.925Z,10.60
2019-05-20T09:52:16.281Z,11.90
2019-05-20T09:54:45.549Z,13.05
2019-05-20T09:57:11.054Z,11.28
2019-05-20T09:59:43.191Z,10.95
2019-05-20T10:02:05.639Z,12.15
2019-05-20T10:04:32.070Z,11.50
2019-05-20T10:06:58.676Z,11.68
2019-05-20T10:09:25.279Z,11.90
2019-05-20T10:11:51.605Z,12.00
2019-05-20T10:14:18.266Z,12.13
2019-05-20T10:16:44.719Z,12.00
2019-05-20T10:19:10.962Z,12.35
2019-05-20T10:21:37.389Z,10.53
2019-05-20T10:24:04.349Z,12.43
2019-05-20T10:26:30.879Z,12.35
2019-05-20T10:28:57.201Z,12.90
2019-05-20T10:31:23.729Z,11.55
2019-05-20T10:33:50.041Z,12.47
2019-05-20T10:36:16.445Z,12.05
2019-05-20T10:38:57.724Z,12.43
2019-05-20T10:41:13.312Z,12.43
2019-05-20T10:43:39.777Z,13.30
2019-05-20T10:46:18.037Z,12.00
2019-05-20T10:48:57.469Z,12.88
2019-05-20T10:51:36.889Z,13.85
2019-05-20T10:54:15.265Z,13.08
2019-05-20T10:56:54.568Z,13.22
2019-05-20T10:59:33.538Z,13.90
2019-05-20T11:02:12.952Z,12.30
2019-05-20T11:04:54.408Z,13.15
2019-05-20T11:07:41.238Z,14.70
2019-05-20T11:10:09.893Z,13.62
2019-05-20T11:12:36.200Z,16.10
2019-05-20T11:15:04.897Z,15.60
2019-05-20T11:17:31.158Z,14.35
2019-05-20T11:19:57.564Z,17.45
2019-05-20T11:22:23.774Z,16.77
2019-05-20T11:24:50.039Z,14.35
2019-05-20T11:27:16.488Z,13.32
2019-05-20T11:29:42.741Z,12.95
2019-05-20T11:32:09.382Z,13.58
2019-05-20T11:34:38.119Z,12.00
2019-05-20T11:37:04.799Z,12.88
2019-05-20T11:39:33.752Z,13.98
2019-05-20T11:41:59.350Z,12.82
2019-05-20T11:44:25.588Z,12.85
2019-05-20T11:46:51.828Z,12.55
2019-05-20T11:49:18.269Z,11.53
2019-05-20T11:51:44.468Z,11.63
2019-05-20T11:54:10.729Z,11.70
2019-05-20T11:56:37.313Z,12.98
2019-05-20T11:59:03.620Z,12.40
2019-05-20T12:01:29.959Z,13.58
2019-05-20T12:03:56.212Z,11.80
2019-05-20T12:06:22.498Z,13.25
2019-05-20T12:08:48.792Z,12.90
2019-05-20T12:11:15.016Z,11.83
2019-05-20T12:13:41.405Z,11.12
2019-05-20T12:16:07.644Z,13.00
2019-05-20T12:18:34.403Z,12.60
2019-05-20T12:21:00.673Z,13.03
2019-05-20T12:23:27.244Z,12.25
2019-05-20T12:25:53.653Z,13.65
2019-05-20T12:28:19.916Z,11.45
2019-05-20T12:30:46.287Z,11.57
2019-05-20T12:33:19.188Z,11.90
2019-05-20T12:35:40.923Z,12.85
2019-05-20T12:38:07.208Z,13.03
2019-05-20T12:40:33.603Z,12.35
2019-05-20T12:42:59.875Z,12.88
2019-05-20T12:45:26.423Z,12.70
2019-05-20T12:47:52.661Z,12.28
2019-05-20T12:50:19.032Z,12.73
2019-05-20T12:52:45.282Z,12.73
2019-05-20T12:55:11.964Z,12.68
2019-05-20T12:57:38.611Z,12.30
2019-05-20T13:00:11.837Z,12.07
2019-05-20T13:02:40.556Z,13.28
2019-05-20T13:05:06.978Z,12.75
2019-05-20T13:07:33.408Z,13.05
2019-05-20T13:10:02.766Z,12.60
2019-05-20T13:12:30.933Z,12.37
2019-05-20T13:14:57.258Z,13.10
2019-05-20T13:17:23.952Z,13.60
2019-05-20T13:19:50.386Z,12.10
2019-05-20T13:22:16.754Z,11.95
2019-05-20T13:24:43.054Z,12.70
2019-05-20T13:27:09.320Z,11.95
2019-05-20T13:29:37.742Z,12.43
2019-05-20T13:32:04.287Z,12.70
2019-05-20T13:34:30.558Z,13.25
2019-05-20T13:36:56.820Z,13.48
2019-05-20T13:39:23.100Z,14.25
2019-05-20T13:41:49.445Z,12.98
2019-05-20T13:44:15.796Z,13.28
2019-05-20T13:46:42.099Z,14.28
2019-05-20T13:49:08.577Z,13.15
2019-05-20T13:51:38.422Z,15.70
2019-05-20T13:54:03.077Z,13.50
2019-05-20T13:56:29.783Z,15.10
2019-05-20T13:58:55.997Z,14.05
2019-05-20T14:01:22.540Z,15.00
2019-05-20T14:03:48.914Z,14.47
2019-05-20T14:06:17.261Z,14.58
2019-05-20T14:08:43.800Z,13.70
2019-05-20T14:11:11.592Z,14.10
2019-05-20T14:13:37.866Z,12.88
2019-05-20T14:16:04.220Z,13.03
2019-05-20T14:18:30.587Z,12.10
2019-05-20T14:20:56.839Z,14.68
2019-05-20T14:23:23.291Z,13.45
2019-05-20T14:25:49.643Z,13.00
2019-05-20T14:28:16.228Z,13.72
2019-05-20T14:30:44.398Z,13.08
2019-05-20T14:33:10.677Z,14.43
2019-05-20T14:35:37.020Z,14.20
2019-05-20T14:38:03.244Z,13.85
2019-05-20T14:40:29.575Z,15.20
2019-05-20T14:42:55.987Z,15.30
2019-05-20T14:45:22.262Z,15.13
2019-05-20T14:47:49.017Z,13.55
2019-05-20T14:50:15.491Z,14.10
2019-05-20T14:52:41.770Z,15.03
2019-05-20T14:55:08.124Z,14.03
2019-05-20T14:57:34.405Z,13.53
2019-05-20T15:00:00.864Z,15.48
2019-05-20T15:02:30.785Z,15.78
2019-05-20T15:04:55.296Z,14.40
2019-05-20T15:07:29.788Z,14.38
2019-05-20T15:09:49.655Z,12.95
2019-05-20T15:12:15.903Z,13.80
2019-05-20T15:14:42.648Z,14.18
2019-05-20T15:17:09.465Z,13.75
2019-05-20T15:19:35.756Z,13.05
2019-05-20T15:22:02.006Z,14.63
2019-05-20T15:24:28.251Z,15.58
2019-05-20T15:26:54.568Z,14.28
2019-05-20T15:29:28.187Z,16.27
2019-05-20T15:31:49.930Z,14.20
2019-05-20T15:34:16.187Z,15.50
2019-05-20T15:36:42.648Z,16.37
2019-05-20T15:39:28.798Z,17.20
2019-05-20T15:41:55.245Z,15.05
2019-05-20T15:44:21.562Z,14.10
2019-05-20T15:46:47.949Z,15.55
2019-05-20T15:49:14.594Z,15.00
2019-05-20T15:51:41.042Z,14.80
2019-05-20T15:54:07.302Z,13.80
2019-05-20T15:56:33.649Z,14.68
2019-05-20T15:58:59.989Z,13.22
2019-05-20T16:01:26.303Z,14.68
2019-05-20T16:03:52.603Z,13.25
2019-05-20T16:06:18.833Z,14.28
2019-05-20T16:08:45.208Z,13.60
2019-05-20T16:11:11.467Z,13.62
2019-05-20T16:13:37.716Z,13.45
2019-05-20T16:16:04.462Z,11.90
2019-05-20T16:18:30.778Z,11.50
2019-05-20T16:20:57.100Z,12.28
2019-05-20T16:23:23.854Z,13.65
2019-05-20T16:25:50.115Z,11.90
2019-05-20T16:28:16.599Z,11.30
2019-05-20T16:30:42.863Z,12.53
2019-05-20T16:33:09.178Z,11.28
2019-05-20T16:35:35.433Z,12.55
2019-05-20T16:38:02.176Z,14.07
2019-05-20T16:40:28.459Z,11.70
2019-05-20T16:42:54.870Z,11.95
2019-05-20T16:45:21.347Z,12.25
2019-05-20T16:47:47.739Z,12.20
2019-05-20T16:50:16.469Z,12.93
2019-05-20T16:52:42.812Z,13.38
2019-05-20T16:55:10.603Z,11.22
2019-05-20T16:57:37.165Z,13.10
2019-05-20T17:00:08.565Z,12.13
2019-05-20T17:02:33.644Z,11.73
2019-05-20T17:05:00.035Z,19.70
2019-05-20T17:07:26.562Z,12.05
2019-05-20T17:09:53.035Z,13.20
2019-05-20T17:12:19.303Z,26.48
2019-05-20T17:14:45.597Z,14.45
2019-05-20T17:17:11.857Z,46.08
2019-05-20T17:19:38.244Z,47.50
2019-05-20T17:22:05.041Z,36.85
2019-05-20T17:24:31.389Z,78.62
2019-05-20T17:26:57.661Z,27.35
2019-05-20T17:29:24.008Z,13.75
2019-05-20T17:31:50.295Z,12.20
2019-05-20T17:34:16.653Z,17.32
2019-05-20T17:36:44.825Z,12.20
2019-05-20T17:39:11.386Z,10.60
2019-05-20T17:41:37.768Z,10.82
2019-05-20T17:44:04.351Z,10.30
2019-05-20T17:46:30.796Z,8.80
2019-05-20T17:48:57.044Z,10.20
2019-05-20T17:51:23.401Z,9.98
2019-05-20T17:53:49.733Z,13.68
2019-05-20T17:56:16.295Z,10.80
2019-05-20T17:58:42.676Z,9.45
2019-05-20T18:01:15.496Z,9.43
2019-05-20T18:03:37.315Z,9.73
2019-05-20T18:06:03.860Z,10.63
2019-05-20T18:08:32.203Z,9.33
2019-05-20T18:10:58.608Z,9.28
2019-05-20T18:13:24.865Z,10.25
2019-05-20T18:15:51.180Z,10.68
2019-05-20T18:18:17.527Z,11.53
2019-05-20T18:20:44.011Z,10.65
2019-05-20T18:23:10.357Z,9.88
2019-05-20T18:25:36.609Z,13.10
2019-05-20T18:28:03.127Z,11.18
2019-05-20T18:30:29.646Z,10.50
2019-05-20T18:32:55.956Z,10.75
2019-05-20T18:35:22.160Z,10.90
2019-05-20T18:37:48.715Z,11.60
2019-05-20T18:40:15.343Z,11.35
2019-05-20T18:42:41.693Z,11.70
2019-05-20T18:45:08.678Z,11.22
2019-05-20T18:47:35.815Z,11.57
2019-05-20T18:50:05.487Z,11.93
2019-05-20T18:52:31.891Z,11.85
2019-05-20T18:54:58.218Z,12.10
2019-05-20T18:57:24.476Z,10.65
2019-05-20T18:59:50.890Z,11.73
2019-05-20T19:02:17.294Z,10.80
2019-05-20T19:04:43.614Z,11.68
2019-05-20T19:07:10.077Z,11.83
2019-05-20T19:09:36.452Z,12.47
2019-05-20T19:12:02.929Z,10.72
2019-05-20T19:14:29.520Z,11.48
2019-05-20T19:16:55.987Z,11.05
2019-05-20T19:19:22.370Z,12.05
2019-05-20T19:21:48.836Z,11.33
2019-05-20T19:24:15.227Z,10.78
2019-05-20T19:26:41.652Z,11.88
2019-05-20T19:29:08.233Z,11.43
2019-05-20T19:31:34.681Z,12.18
2019-05-20T19:34:00.948Z,13.85
2019-05-20T19:36:27.308Z,11.38
2019-05-20T19:38:53.699Z,12.65
2019-05-20T19:41:20.846Z,10.10
2019-05-20T19:43:47.215Z,11.43
2019-05-20T19:46:13.539Z,10.98
2019-05-20T19:48:40.231Z,10.95
2019-05-20T19:51:06.486Z,10.78
2019-05-20T19:53:33.057Z,10.60
2019-05-20T19:56:00.483Z,11.28
2019-05-20T19:58:27.331Z,10.68
2019-05-20T20:00:56.820Z,10.72
2019-05-20T20:03:23.378Z,9.00
2019-05-20T20:05:51.054Z,9.18
2019-05-20T20:08:17.516Z,8.03
2019-05-20T20:10:43.829Z,7.58
2019-05-20T20:13:10.229Z,7.40
2019-05-20T20:15:36.562Z,7.90
2019-05-20T20:18:04.875Z,7.70
2019-05-20T20:20:31.330Z,8.20
2019-05-20T20:22:57.649Z,8.08
2019-05-20T20:25:24.260Z,8.43
2019-05-20T20:27:50.495Z,8.78
2019-05-20T20:30:17.768Z,8.50
2019-05-20T20:32:44.163Z,7.87
2019-05-20T20:35:10.964Z,8.05
2019-05-20T20:37:37.351Z,7.92
2019-05-20T20:40:04.392Z,7.20
2019-05-20T20:42:30.705Z,6.78
2019-05-20T20:44:57.086Z,6.60
2019-05-20T20:47:24.462Z,6.15
2019-05-20T20:49:50.995Z,6.45
2019-05-20T20:52:32.423Z,6.25
2019-05-20T20:54:59.221Z,5.62
2019-05-20T20:57:25.509Z,5.30
2019-05-20T20:59:53.140Z,5.55
2019-05-20T21:02:19.812Z,5.33
2019-05-20T21:04:47.423Z,5.35
2019-05-20T21:07:15.316Z,6.87
2019-05-20T21:09:41.704Z,6.00
2019-05-20T21:12:07.995Z,5.17
2019-05-20T21:14:34.876Z,5.47
2019-05-20T21:17:01.364Z,5.33
2019-05-20T21:19:27.582Z,5.25
2019-05-20T21:21:53.887Z,4.53
2019-05-20T21:24:27.685Z,5.50
2019-05-20T21:26:55.673Z,5.45
2019-05-20T21:29:21.928Z,5.55
2019-05-20T21:31:49.551Z,6.12
2019-05-20T21:34:15.767Z,5.20
2019-05-20T21:36:47.893Z,5.53
2019-05-20T21:39:10.232Z,5.60
2019-05-20T21:41:36.627Z,5.55
2019-05-20T21:44:03.192Z,5.37
2019-05-20T21:46:29.358Z,5.28
2019-05-20T21:48:55.588Z,5.80
2019-05-20T21:51:23.280Z,6.97
2019-05-20T21:53:49.726Z,6.65
2019-05-20T21:56:15.988Z,6.87
2019-05-20T21:58:42.271Z,7.90
2019-05-20T22:01:08.809Z,5.35
2019-05-20T22:03:35.278Z,5.25
2019-05-20T22:06:01.641Z,5.60
2019-05-20T22:08:28.044Z,5.67
2019-05-20T22:10:54.586Z,5.65
2019-05-20T22:13:20.790Z,6.33
2019-05-20T22:15:47.167Z,5.20
2019-05-20T22:18:13.400Z,5.70
2019-05-20T22:20:39.723Z,6.33
2019-05-20T22:23:24.781Z,5.47
2019-05-20T22:25:52.309Z,5.50
2019-05-20T22:28:18.741Z,5.05
2019-05-20T22:30:45.024Z,5.72
2019-05-20T22:33:11.368Z,5.40
2019-05-20T22:35:37.630Z,5.30
2019-05-20T22:38:04.005Z,5.33
2019-05-20T22:40:30.267Z,6.30
2019-05-20T22:42:56.643Z,6.05
2019-05-20T22:45:22.861Z,5.60
2019-05-20T22:47:49.201Z,5.92
2019-05-20T22:50:15.572Z,5.15
2019-05-20T22:52:43.731Z,5.50
2019-05-20T22:55:10.505Z,6.70
2019-05-20T22:57:36.796Z,5.17
2019-05-20T23:00:04.513Z,5.60
2019-05-20T23:02:30.997Z,5.47
2019-05-20T23:04:57.304Z,5.58
2019-05-20T23:07:23.673Z,5.10
2019-05-20T23:09:50.227Z,5.45
2019-05-20T23:12:16.542Z,5.08
2019-05-20T23:14:42.806Z,5.15
2019-05-20T23:17:09.035Z,5.40
2019-05-20T23:19:35.375Z,5.33
2019-05-20T23:22:01.645Z,5.87
2019-05-20T23:24:28.030Z,6.12
2019-05-20T23:26:54.444Z,5.42
2019-05-20T23:29:20.710Z,6.00
2019-05-20T23:31:46.980Z,6.33
2019-05-20T23:34:13.486Z,5.47
2019-05-20T23:36:39.902Z,5.90
2019-05-20T23:39:07.067Z,5.67
2019-05-20T23:41:33.648Z,5.42
2019-05-20T23:44:00.125Z,6.10
2019-05-20T23:46:26.394Z,5.95
2019-05-20T23:48:52.675Z,5.55
2019-05-20T23:51:18.906Z,5.30
2019-05-20T23:53:45.272Z,5.62
2019-05-20T23:56:11.563Z,5.72
2019-05-20T23:58:37.791Z,5.65
